Time;durP1;ratioP1;P1;durP2;ratioP2;P2;SDS_P1;SDS_P2;PMS_P1;PMS_P2;Temp;Humidity;BMP_temperature;BMP_pressure;BME280_temperature;BME280_humidity;BME280_pressure;Samples;Min_cycle;Max_cycle;Signal;HPM_P1;HPM_P2
2021/08/29 00:02:25;;;;;;;;;;;;;;;22.05;61.74;101030.83;1812278;79;20215;-73
2021/08/29 00:04:57;;;;;;;;;;;;;;;22.03;61.86;101028.35;1804190;78;20536;-74
2021/08/29 00:07:28;;;;;;;;;;;;;;;22.02;61.96;101030.09;1812339;79;20355;-75
2021/08/29 00:10:00;;;;;;;;;;;;;;;22.02;62.02;101024.43;1804044;78;20243;-72
2021/08/29 00:12:31;;;;;;;;;;;;;;;22.01;62.07;101025.00;1813756;79;20255;-74
2021/08/29 00:15:16;;;;;;;;;;;;;;;22.02;62.21;101028.67;1812535;79;20283;-73
2021/08/29 00:17:47;;;;;;;;;;;;;;;22.02;62.28;101027.26;1777889;81;20255;-75
2021/08/29 00:20:19;;;;;;;;;;;;;;;21.97;62.41;101019.77;1777844;81;20256;-77
2021/08/29 00:22:54;;;;;;;;;;;;;;;21.94;62.63;101020.41;1777909;81;20255;-75
2021/08/29 00:25:27;;;;;;;;;;;;;;;21.92;62.87;101023.30;1777993;81;20247;-74
2021/08/29 00:27:59;;;;;;;;;;;;;;;21.88;63.18;101019.48;1777907;81;20180;-74
2021/08/29 00:30:32;;;;;;;;;;;;;;;21.83;63.48;101011.96;1777840;81;20255;-73
2021/08/29 00:33:03;;;;;;;;;;;;;;;21.83;63.67;101013.37;1778003;81;20262;-74
2021/08/29 00:35:35;;;;;;;;;;;;;;;21.85;63.71;101011.64;1777855;81;20263;-73
2021/08/29 00:38:07;;;;;;;;;;;;;;;21.86;63.87;101004.81;1776289;80;20183;-70
2021/08/29 00:40:38;;;;;;;;;;;;;;;21.87;64.00;101007.33;1777811;81;20243;-73
2021/08/29 00:43:10;;;;;;;;;;;;;;;21.86;64.02;101000.58;1777567;81;20211;-73
2021/08/29 00:45:42;;;;;;;;;;;;;;;21.87;64.07;101003.66;1771902;81;20251;-72
2021/08/29 00:48:16;;;;;;;;;;;;;;;21.87;64.32;100992.34;1744865;82;20197;-72
2021/08/29 00:50:48;;;;;;;;;;;;;;;21.89;64.35;100987.20;1744757;82;20178;-73
2021/08/29 00:53:21;;;;;;;;;;;;;;;21.91;64.40;100980.06;1744721;82;20213;-73
2021/08/29 00:55:53;;;;;;;;;;;;;;;21.95;64.41;100977.41;1745175;82;20277;-71
2021/08/29 00:58:26;;;;;;;;;;;;;;;21.96;64.44;100973.41;1744746;82;20257;-71
2021/08/29 01:01:00;;;;;;;;;;;;;;;21.96;64.61;100971.44;1744815;82;20193;-73
2021/08/29 01:03:34;;;;;;;;;;;;;;;21.97;64.67;100966.02;1744744;81;20174;-72
2021/08/29 01:06:24;;;;;;;;;;;;;;;21.98;64.82;100971.08;1772054;78;20294;-78
2021/08/29 01:08:59;;;;;;;;;;;;;;;21.98;64.88;100964.01;1783932;80;20260;-75
2021/08/29 01:11:33;;;;;;;;;;;;;;;21.98;64.96;100964.01;1777755;80;20255;-76
2021/08/29 01:14:05;;;;;;;;;;;;;;;22.01;65.10;100963.36;1770832;81;20282;-75
2021/08/29 01:16:39;;;;;;;;;;;;;;;22.00;65.22;100960.29;1770857;81;20183;-75
2021/08/29 01:19:16;;;;;;;;;;;;;;;22.00;65.36;100963.11;1771058;80;20188;-76
2021/08/29 01:21:49;;;;;;;;;;;;;;;21.96;65.58;100959.27;1770872;80;20249;-75
2021/08/29 01:24:21;;;;;;;;;;;;;;;21.94;65.74;100951.70;1781719;78;20659;-75
2021/08/29 01:26:56;;;;;;;;;;;;;;;21.94;65.83;100951.11;1824336;79;20207;-75
2021/08/29 01:29:30;;;;;;;;;;;;;;;21.95;65.92;100957.61;1824268;79;20631;-77
2021/08/29 01:32:05;;;;;;;;;;;;;;;21.94;65.88;100952.52;1824384;78;20294;-76
2021/08/29 01:34:37;;;;;;;;;;;;;;;21.99;65.95;100952.94;1824523;79;20250;-74
2021/08/29 01:37:10;;;;;;;;;;;;;;;22.01;65.93;100943.56;1823164;78;20246;-73
2021/08/29 01:39:42;;;;;;;;;;;;;;;21.98;65.90;100944.20;1811903;78;20239;-76
2021/08/29 01:42:15;;;;;;;;;;;;;;;21.95;66.05;100942.05;1812591;78;20246;-74
2021/08/29 01:44:46;;;;;;;;;;;;;;;21.97;66.14;100943.95;1835311;77;20183;-75
2021/08/29 01:47:18;;;;;;;;;;;;;;;21.94;66.28;100936.97;1835182;77;20612;-73
2021/08/29 01:49:50;;;;;;;;;;;;;;;21.97;66.52;100939.72;1834987;78;20183;-73
2021/08/29 01:52:22;;;;;;;;;;;;;;;21.96;66.65;100928.16;1835163;77;20243;-73
2021/08/29 01:55:12;;;;;;;;;;;;;;;21.97;66.77;100923.59;1835077;78;20255;-74
2021/08/29 01:57:54;;;;;;;;;;;;;;;21.96;67.01;100921.08;1774247;77;20191;-72
2021/08/29 02:00:27;;;;;;;;;;;;;;;21.98;67.16;100922.99;1831911;78;20698;-73
2021/08/29 02:02:58;;;;;;;;;;;;;;;21.97;67.38;100910.02;1837326;78;20228;-74
2021/08/29 02:05:31;;;;;;;;;;;;;;;21.97;67.67;100911.43;1837497;78;20589;-74
2021/08/29 02:08:02;;;;;;;;;;;;;;;22.00;67.94;100913.61;1837149;78;20593;-74
2021/08/29 02:10:36;;;;;;;;;;;;;;;22.02;68.16;100919.19;1816784;77;20244;-74
2021/08/29 02:13:13;;;;;;;;;;;;;;;22.02;68.40;100908.45;1836037;77;20168;-73
2021/08/29 02:15:52;;;;;;;;;;;;;;;22.04;68.53;100906.95;1832007;78;20255;-74
2021/08/29 02:18:26;;;;;;;;;;;;;;;22.07;68.62;100906.88;1814649;78;20185;-71
2021/08/29 02:20:57;;;;;;;;;;;;;;;22.05;68.83;100905.78;1802516;80;20229;-74
2021/08/29 02:23:31;;;;;;;;;;;;;;;22.06;68.93;100898.14;1802455;79;20262;-74
2021/08/29 02:26:02;;;;;;;;;;;;;;;22.05;69.14;100897.30;1793743;74;20241;-75
2021/08/29 02:28:35;;;;;;;;;;;;;;;22.02;69.39;100897.98;1802784;78;20189;-78
2021/08/29 02:31:08;;;;;;;;;;;;;;;21.97;69.72;100901.53;1754491;80;20264;-78
2021/08/29 02:33:40;;;;;;;;;;;;;;;21.91;69.95;100906.53;1771423;79;20276;-74
2021/08/29 02:36:12;;;;;;;;;;;;;;;21.90;70.18;100909.68;1791888;80;20177;-75
2021/08/29 02:38:47;;;;;;;;;;;;;;;21.93;70.26;100903.34;1787017;80;20233;-73
2021/08/29 02:41:19;;;;;;;;;;;;;;;21.99;70.15;100909.94;1763921;80;20188;-75
2021/08/29 02:43:53;;;;;;;;;;;;;;;22.02;70.28;100907.87;1794776;80;20300;-74
2021/08/29 02:46:24;;;;;;;;;;;;;;;22.00;70.33;100897.45;1796789;78;20248;-74
2021/08/29 02:48:56;;;;;;;;;;;;;;;22.01;70.38;100894.06;1790896;80;20281;-73
2021/08/29 02:51:28;;;;;;;;;;;;;;;22.01;70.44;100901.13;1792096;80;20215;-75
2021/08/29 02:54:00;;;;;;;;;;;;;;;21.97;70.61;100898.70;1788654;80;20185;-75
2021/08/29 02:56:33;;;;;;;;;;;;;;;21.95;70.73;100896.80;1791160;80;20185;-74
2021/08/29 02:59:07;;;;;;;;;;;;;;;21.94;70.90;100900.80;1788758;80;20248;-75
2021/08/29 03:01:40;;;;;;;;;;;;;;;21.95;71.13;100898.21;1791404;80;20176;-75
2021/08/29 03:04:17;;;;;;;;;;;;;;;21.94;71.30;100893.72;1788853;80;20246;-74
2021/08/29 03:06:49;;;;;;;;;;;;;;;21.95;71.52;100897.61;1791240;80;20192;-74
2021/08/29 03:09:21;;;;;;;;;;;;;;;21.95;71.64;100899.02;1788680;80;20618;-75
2021/08/29 03:11:54;;;;;;;;;;;;;;;21.93;71.73;100897.69;1790923;80;20570;-75
2021/08/29 03:14:47;;;;;;;;;;;;;;;21.86;71.95;100895.94;1730951;81;20187;-74
2021/08/29 03:17:23;;;;;;;;;;;;;;;21.80;72.30;100897.25;1791252;79;20185;-76
2021/08/29 03:19:56;;;;;;;;;;;;;;;21.73;72.57;100895.50;1786666;80;20561;-75
2021/08/29 03:22:44;;;;;;;;;;;;;;;21.71;72.83;100900.66;1786730;78;20216;-74
2021/08/29 03:25:17;;;;;;;;;;;;;;;21.74;72.95;100899.98;1788683;79;20240;-75
2021/08/29 03:27:49;;;;;;;;;;;;;;;21.72;73.01;100893.84;1791266;80;20216;-75
2021/08/29 03:30:21;;;;;;;;;;;;;;;21.70;73.07;100895.58;1788660;80;20241;-73
2021/08/29 03:32:53;;;;;;;;;;;;;;;21.67;73.28;100892.01;1758655;80;20217;-74
2021/08/29 03:35:26;;;;;;;;;;;;;;;21.63;73.51;100890.96;1787542;80;20201;-73
2021/08/29 03:37:59;;;;;;;;;;;;;;;21.59;73.75;100894.78;1757235;80;20257;-74
2021/08/29 03:40:30;;;;;;;;;;;;;;;21.56;73.99;100894.01;1791130;80;20188;-72
2021/08/29 03:43:02;;;;;;;;;;;;;;;21.54;74.19;100894.92;1788689;80;20209;-73
2021/08/29 03:45:36;;;;;;;;;;;;;;;21.54;74.26;100887.30;1788505;80;20566;-73
2021/08/29 03:48:07;;;;;;;;;;;;;;;21.54;74.29;100896.34;1790956;80;20610;-72
2021/08/29 03:50:39;;;;;;;;;;;;;;;21.57;74.33;100899.34;1759344;80;20268;-73
2021/08/29 03:53:11;;;;;;;;;;;;;;;21.65;74.24;100900.53;1788593;80;20253;-73
2021/08/29 03:55:45;;;;;;;;;;;;;;;21.72;73.96;100903.73;1787759;80;20189;-73
2021/08/29 03:58:17;;;;;;;;;;;;;;;21.72;73.94;100894.69;1791036;80;20252;-73
2021/08/29 04:00:50;;;;;;;;;;;;;;;21.75;74.05;100888.36;1788533;80;20169;-73
2021/08/29 04:03:24;;;;;;;;;;;;;;;21.78;74.09;100878.38;1791099;80;20189;-74
2021/08/29 04:06:04;;;;;;;;;;;;;;;21.81;74.16;100873.47;1786570;80;20216;-74
2021/08/29 04:08:37;;;;;;;;;;;;;;;21.84;74.32;100862.92;1791065;80;20200;-71
2021/08/29 04:11:09;;;;;;;;;;;;;;;21.84;74.53;100858.68;1788667;80;20256;-73
2021/08/29 04:13:43;;;;;;;;;;;;;;;21.89;74.72;100861.36;1766832;76;20558;-75
2021/08/29 04:16:19;;;;;;;;;;;;;;;21.92;74.93;100856.43;1777738;81;20564;-75
2021/08/29 04:18:53;;;;;;;;;;;;;;;22.01;75.06;100858.70;1778175;81;20176;-74
2021/08/29 04:21:26;;;;;;;;;;;;;;;22.14;75.05;100856.28;1778406;80;20219;-74
2021/08/29 04:23:58;;;;;;;;;;;;;;;22.23;74.96;100851.44;1778453;80;20672;-74
2021/08/29 04:26:32;;;;;;;;;;;;;;;22.31;74.60;100847.78;1774943;80;20180;-74
2021/08/29 04:29:03;;;;;;;;;;;;;;;22.32;74.25;100853.69;1778461;79;20541;-74
2021/08/29 04:31:35;;;;;;;;;;;;;;;22.32;74.12;100846.02;1779632;79;20183;-74
2021/08/29 04:34:09;;;;;;;;;;;;;;;22.35;73.84;100845.93;1769467;79;20244;-76
2021/08/29 04:36:42;;;;;;;;;;;;;;;22.35;73.76;100843.10;1773417;79;20308;-73
2021/08/29 04:39:21;;;;;;;;;;;;;;;22.34;73.93;100836.63;1740180;82;20210;-74
2021/08/29 04:41:56;;;;;;;;;;;;;;;22.40;74.14;100837.27;1775333;80;20555;-73
2021/08/29 04:44:29;;;;;;;;;;;;;;;22.51;74.07;100830.97;1778992;80;20239;-72
2021/08/29 04:47:01;;;;;;;;;;;;;;;22.62;74.06;100827.19;1778181;80;20192;-74
2021/08/29 04:49:34;;;;;;;;;;;;;;;22.86;74.11;100832.51;1778912;80;20255;-74
2021/08/29 04:52:07;;;;;;;;;;;;;;;23.17;73.35;100834.48;1778677;80;20540;-74
2021/08/29 04:54:41;;;;;;;;;;;;;;;23.48;72.47;100835.59;1778963;80;20314;-76
2021/08/29 04:57:12;;;;;;;;;;;;;;;23.80;71.75;100834.86;1792277;79;20211;-74
2021/08/29 04:59:45;;;;;;;;;;;;;;;24.14;70.36;100833.20;1776360;80;20191;-74
2021/08/29 05:02:16;;;;;;;;;;;;;;;24.49;69.83;100825.99;1789931;80;20175;-75
2021/08/29 05:04:55;;;;;;;;;;;;;;;24.83;68.24;100822.23;1765412;80;20668;-75
2021/08/29 05:07:27;;;;;;;;;;;;;;;25.14;67.34;100817.39;1760932;81;20280;-74
2021/08/29 05:10:00;;;;;;;;;;;;;;;25.32;66.11;100816.86;1767150;79;20901;-75
2021/08/29 05:12:34;;;;;;;;;;;;;;;25.42;65.81;100816.97;1756703;81;20254;-74
2021/08/29 05:15:11;;;;;;;;;;;;;;;25.46;65.00;100813.63;1760713;81;20261;-77
2021/08/29 05:17:47;;;;;;;;;;;;;;;25.41;64.98;100809.63;1734186;82;20225;-74
2021/08/29 05:20:23;;;;;;;;;;;;;;;25.32;65.28;100803.21;1751210;80;20258;-76
2021/08/29 05:23:12;;;;;;;;;;;;;;;25.20;65.29;100795.50;1748303;81;20269;-75
2021/08/29 05:26:02;;;;;;;;;;;;;;;25.15;65.86;100792.05;1748175;82;20261;-75
2021/08/29 05:28:34;;;;;;;;;;;;;;;25.26;66.64;100781.89;1702008;82;20262;-75
2021/08/29 05:31:06;;;;;;;;;;;;;;;25.49;66.36;100777.37;1737215;80;20261;-76
2021/08/29 05:33:38;;;;;;;;;;;;;;;25.73;66.01;100773.05;1748268;82;20336;-73
2021/08/29 05:36:11;;;;;;;;;;;;;;;26.05;66.10;100774.28;1748355;82;20182;-74
2021/08/29 05:38:43;;;;;;;;;;;;;;;26.39;64.78;100767.12;1748145;82;20186;-77
2021/08/29 05:41:19;;;;;;;;;;;;;;;26.76;63.89;100757.99;1720569;82;20254;-75
2021/08/29 05:43:58;;;;;;;;;;;;;;;27.14;62.26;100766.13;1729871;82;20222;-74
2021/08/29 05:46:32;;;;;;;;;;;;;;;27.43;61.88;100765.66;1729018;83;20191;-74
2021/08/29 05:49:05;;;;;;;;;;;;;;;27.77;61.53;100771.97;1812430;77;20286;-75
2021/08/29 05:51:37;;;;;;;;;;;;;;;28.06;60.52;100779.97;1807049;76;20239;-74
2021/08/29 05:54:09;;;;;;;;;;;;;;;28.17;59.45;100788.17;1829425;78;20183;-74
2021/08/29 05:56:41;;;;;;;;;;;;;;;28.06;58.79;100790.59;1830176;78;20262;-76
2021/08/29 05:59:13;;;;;;;;;;;;;;;27.90;59.54;100794.09;1830074;78;20267;-74
2021/08/29 06:01:44;;;;;;;;;;;;;;;27.87;59.90;100788.53;1825498;78;20564;-74
2021/08/29 06:04:17;;;;;;;;;;;;;;;27.90;59.48;100786.37;1821272;78;20181;-74
2021/08/29 06:06:51;;;;;;;;;;;;;;;28.02;60.21;100789.67;1816997;78;20356;-75
2021/08/29 06:09:23;;;;;;;;;;;;;;;28.08;59.49;100789.02;1828213;78;20251;-73
2021/08/29 06:11:55;;;;;;;;;;;;;;;28.08;59.72;100789.60;1798322;78;20252;-74
2021/08/29 06:14:28;;;;;;;;;;;;;;;28.12;59.35;100788.47;1819194;78;20625;-74
2021/08/29 06:17:00;;;;;;;;;;;;;;;28.04;59.37;100768.10;1816039;77;20264;-74
2021/08/29 06:19:33;;;;;;;;;;;;;;;28.07;59.61;100770.19;1819200;79;20255;-74
2021/08/29 06:22:05;;;;;;;;;;;;;;;28.06;59.68;100771.41;1819211;79;20653;-75
2021/08/29 06:24:38;;;;;;;;;;;;;;;27.94;58.83;100770.73;1815512;79;20203;-74
2021/08/29 06:27:27;;;;;;;;;;;;;;;27.59;59.53;100765.00;1825178;78;20259;-74
2021/08/29 06:30:13;;;;;;;;;;;;;;;27.26;60.96;100745.86;1828130;78;20263;-75
2021/08/29 06:33:01;;;;;;;;;;;;;;;27.30;61.69;100743.93;1826583;78;20302;-74
2021/08/29 06:35:35;;;;;;;;;;;;;;;27.39;61.91;100753.94;1820833;78;20263;-75
2021/08/29 06:38:07;;;;;;;;;;;;;;;27.46;61.39;100742.69;1828611;78;20210;-74
2021/08/29 06:40:39;;;;;;;;;;;;;;;27.52;61.76;100747.72;1825387;78;20274;-76
2021/08/29 06:43:11;;;;;;;;;;;;;;;27.67;60.51;100756.00;1828175;77;20549;-75
2021/08/29 06:45:50;;;;;;;;;;;;;;;27.59;59.72;100750.73;1817808;78;20672;-74
2021/08/29 06:48:40;;;;;;;;;;;;;;;27.50;60.43;100740.72;1834577;75;20254;-74
2021/08/29 06:51:31;;;;;;;;;;;;;;;27.54;60.30;100735.34;1882658;76;20252;-74
2021/08/29 06:54:22;;;;;;;;;;;;;;;27.53;60.63;100735.09;1878402;76;20244;-74
2021/08/29 06:57:12;;;;;;;;;;;;;;;27.46;60.43;100730.66;1881717;76;20189;-76
2021/08/29 06:59:44;;;;;;;;;;;;;;;27.32;60.61;100721.55;1887176;76;20272;-75
2021/08/29 07:02:16;;;;;;;;;;;;;;;27.10;61.19;100723.84;1878046;74;20275;-74
2021/08/29 07:04:48;;;;;;;;;;;;;;;26.93;61.75;100722.58;1883769;76;20236;-74
2021/08/29 07:07:20;;;;;;;;;;;;;;;26.72;62.24;100720.03;1844812;75;20614;-78
2021/08/29 07:10:11;;;;;;;;;;;;;;;26.50;62.94;100716.35;1727423;80;20261;-77
2021/08/29 07:12:45;;;;;;;;;;;;;;;26.29;63.97;100708.67;1789320;79;20236;-73
2021/08/29 07:15:19;;;;;;;;;;;;;;;26.24;64.40;100720.91;1776600;80;20556;-77
2021/08/29 07:17:52;;;;;;;;;;;;;;;26.27;64.82;100710.22;1813249;77;20181;-77
2021/08/29 07:20:26;;;;;;;;;;;;;;;26.36;64.93;100704.59;1808442;79;20259;-78
2021/08/29 07:23:17;;;;;;;;;;;;;;;26.44;65.43;100703.57;1809912;79;20632;-75
2021/08/29 07:25:53;;;;;;;;;;;;;;;26.57;65.06;100715.76;1778023;79;20261;-77
2021/08/29 07:28:43;;;;;;;;;;;;;;;26.54;64.62;100703.66;1812869;79;20198;-75
2021/08/29 07:31:34;;;;;;;;;;;;;;;26.46;64.87;100700.36;1812930;79;20218;-74
2021/08/29 07:34:06;;;;;;;;;;;;;;;26.42;65.07;100696.58;1812569;79;20180;-76
2021/08/29 07:36:41;;;;;;;;;;;;;;;26.37;65.33;100689.14;1809046;79;20171;-76
2021/08/29 07:39:14;;;;;;;;;;;;;;;26.36;65.54;100687.49;1812803;79;20219;-77
2021/08/29 07:41:46;;;;;;;;;;;;;;;26.35;65.89;100679.30;1812821;78;20175;-76
2021/08/29 07:44:18;;;;;;;;;;;;;;;26.31;65.86;100673.52;1812844;78;20211;-78
2021/08/29 07:46:49;;;;;;;;;;;;;;;26.27;65.92;100666.08;1812910;79;20258;-75
2021/08/29 07:49:22;;;;;;;;;;;;;;;26.20;66.15;100665.27;1813087;79;20631;-77
2021/08/29 07:51:54;;;;;;;;;;;;;;;26.16;66.61;100661.48;1813442;76;20242;-75
2021/08/29 07:54:43;;;;;;;;;;;;;;;26.15;66.92;100659.84;1808907;79;20298;-74
2021/08/29 07:57:28;;;;;;;;;;;;;;;26.17;67.10;100660.33;1775195;78;20247;-73
2021/08/29 08:00:04;;;;;;;;;;;;;;;26.19;67.28;100655.66;1811819;78;20191;-73
2021/08/29 08:02:37;;;;;;;;;;;;;;;26.13;67.37;100662.23;1813537;78;20283;-73
2021/08/29 08:05:26;;;;;;;;;;;;;;;26.06;67.79;100666.90;1811799;79;20283;-73
2021/08/29 08:08:09;;;;;;;;;;;;;;;26.04;67.99;100672.14;1757284;79;20286;-74
2021/08/29 08:10:45;;;;;;;;;;;;;;;26.02;68.44;100674.53;1808115;78;20246;-75
2021/08/29 08:13:22;;;;;;;;;;;;;;;26.04;68.48;100686.38;1804649;79;20183;-74
2021/08/29 08:15:54;;;;;;;;;;;;;;;25.98;67.78;100694.33;1811783;79;20286;-73
2021/08/29 08:18:26;;;;;;;;;;;;;;;25.90;68.16;100692.48;1811662;79;20243;-74
2021/08/29 08:20:57;;;;;;;;;;;;;;;25.88;68.19;100691.16;1811736;79;20244;-75
2021/08/29 08:23:31;;;;;;;;;;;;;;;25.88;68.31;100685.47;1806260;79;20297;-75
2021/08/29 08:26:20;;;;;;;;;;;;;;;25.88;68.35;100674.08;1793279;77;20288;-74
2021/08/29 08:29:09;;;;;;;;;;;;;;;25.87;68.32;100679.54;1758169;81;20288;-74
2021/08/29 08:31:51;;;;;;;;;;;;;;;25.90;68.48;100680.28;1749996;81;20200;-74
2021/08/29 08:34:41;;;;;;;;;;;;;;;25.84;68.55;100673.17;1763141;81;20272;-73
2021/08/29 08:37:18;;;;;;;;;;;;;;;25.79;68.96;100659.20;1754301;81;20189;-74
2021/08/29 08:39:58;;;;;;;;;;;;;;;25.78;69.08;100649.01;1756725;81;20177;-73
2021/08/29 08:42:34;;;;;;;;;;;;;;;25.77;69.46;100628.24;1763047;81;20192;-75
2021/08/29 08:45:16;;;;;;;;;;;;;;;25.79;69.56;100636.42;1761772;81;20661;-74
2021/08/29 08:48:06;;;;;;;;;;;;;;;25.83;69.42;100654.41;1763048;81;20292;-76
2021/08/29 08:50:55;;;;;;;;;;;;;;;25.83;69.17;100655.25;1763108;81;20601;-76
2021/08/29 08:53:45;;;;;;;;;;;;;;;25.84;69.21;100658.33;1763944;80;20257;-74
2021/08/29 08:56:34;;;;;;;;;;;;;;;25.84;68.84;100668.28;1789649;80;20225;-74
2021/08/29 08:59:11;;;;;;;;;;;;;;;25.85;68.75;100669.94;1815969;78;20635;-72
2021/08/29 09:01:50;;;;;;;;;;;;;;;25.88;68.68;100670.65;1825852;78;20305;-75
2021/08/29 09:04:26;;;;;;;;;;;;;;;25.95;68.27;100686.53;1815482;78;20250;-73
2021/08/29 09:07:00;;;;;;;;;;;;;;;26.01;68.10;100687.09;1883314;76;20276;-74
2021/08/29 09:09:34;;;;;;;;;;;;;;;26.12;67.58;100689.64;1883774;76;20236;-75
2021/08/29 09:12:06;;;;;;;;;;;;;;;26.25;66.70;100686.95;1820196;76;20175;-79
2021/08/29 09:14:44;;;;;;;;;;;;;;;26.36;66.17;100683.80;1780481;78;20245;-80
2021/08/29 09:17:33;;;;;;;;;;;;;;;26.45;65.40;100678.77;1780891;80;20245;-77
2021/08/29 09:20:19;;;;;;;;;;;;;;;26.51;64.93;100680.96;1782893;79;20237;-76
2021/08/29 09:23:01;;;;;;;;;;;;;;;26.57;65.31;100680.95;1776058;80;20238;-75
2021/08/29 09:25:54;;;;;;;;;;;;;;;26.63;64.54;100667.27;1766928;81;20188;-73
2021/08/29 09:28:45;;;;;;;;;;;;;;;26.67;64.35;100664.73;1741887;80;20200;-75
2021/08/29 09:31:21;;;;;;;;;;;;;;;26.73;64.07;100658.14;1766680;80;20327;-76
2021/08/29 09:34:02;;;;;;;;;;;;;;;26.86;63.78;100655.41;1773066;79;20248;-79
2021/08/29 09:36:38;;;;;;;;;;;;;;;27.03;63.42;100669.49;1774318;80;20554;-77
2021/08/29 09:39:17;;;;;;;;;;;;;;;27.19;62.16;100666.63;1773200;79;20245;-78
2021/08/29 09:42:02;;;;;;;;;;;;;;;27.32;61.44;100664.49;1780530;80;20179;-79
2021/08/29 09:44:44;;;;;;;;;;;;;;;27.44;60.47;100656.60;1755170;79;20262;-78
2021/08/29 09:47:33;;;;;;;;;;;;;;;27.55;59.13;100659.94;1790537;78;20559;-75
2021/08/29 09:50:23;;;;;;;;;;;;;;;27.56;58.33;100651.59;1791720;79;20299;-75
2021/08/29 09:53:09;;;;;;;;;;;;;;;27.52;57.87;100647.02;1737547;80;20266;-76
2021/08/29 09:55:59;;;;;;;;;;;;;;;27.49;57.63;100642.88;1761213;81;20217;-76
2021/08/29 09:58:42;;;;;;;;;;;;;;;27.48;57.75;100638.38;1766288;80;20198;-75
2021/08/29 10:01:16;;;;;;;;;;;;;;;27.52;58.11;100637.03;1760493;80;20189;-69
2021/08/29 10:04:00;;;;;;;;;;;;;;;27.58;57.84;100643.47;1771106;78;20293;-78
2021/08/29 10:06:35;;;;;;;;;;;;;;;27.64;57.37;100634.83;1753800;80;20188;-76
2021/08/29 10:09:06;;;;;;;;;;;;;;;27.67;56.82;100631.83;1779963;80;20617;-74
2021/08/29 10:11:43;;;;;;;;;;;;;;;27.70;57.86;100632.52;1776137;80;20253;-72
2021/08/29 10:14:15;;;;;;;;;;;;;;;27.73;56.90;100634.60;1774300;77;20276;-75
2021/08/29 10:17:07;;;;;;;;;;;;;;;27.75;56.66;100635.88;1769953;81;20241;-73
2021/08/29 10:19:57;;;;;;;;;;;;;;;27.77;57.07;100638.40;1769176;79;20220;-74
2021/08/29 10:22:46;;;;;;;;;;;;;;;27.78;57.23;100639.45;1773606;81;20576;-73
2021/08/29 10:25:18;;;;;;;;;;;;;;;27.80;57.29;100628.48;1776338;81;20249;-76
2021/08/29 10:27:53;;;;;;;;;;;;;;;27.84;57.79;100632.23;1769214;81;20645;-72
2021/08/29 10:30:30;;;;;;;;;;;;;;;27.90;57.94;100632.74;1780673;78;20539;-74
2021/08/29 10:33:04;;;;;;;;;;;;;;;27.94;57.88;100625.09;1779042;79;20198;-76
2021/08/29 10:35:42;;;;;;;;;;;;;;;27.96;57.87;100627.78;1775635;78;20229;-80
2021/08/29 10:38:20;;;;;;;;;;;;;;;28.01;58.25;100630.30;1769824;78;20199;-77
2021/08/29 10:41:11;;;;;;;;;;;;;;;28.07;57.91;100612.27;1775343;80;20253;-77
2021/08/29 10:43:45;;;;;;;;;;;;;;;28.12;57.72;100615.63;1777199;81;20256;-76
2021/08/29 10:46:36;;;;;;;;;;;;;;;28.20;57.64;100614.55;1779489;81;20265;-80
2021/08/29 10:49:29;;;;;;;;;;;;;;;28.29;57.04;100610.84;1776411;78;20217;-74
2021/08/29 10:52:04;;;;;;;;;;;;;;;28.36;56.56;100611.59;1774774;81;20233;-72
2021/08/29 10:54:52;;;;;;;;;;;;;;;28.39;55.94;100610.84;1775848;81;20193;-78
2021/08/29 10:57:33;;;;;;;;;;;;;;;28.41;54.98;100599.25;1766102;81;20245;-73
2021/08/29 11:00:18;;;;;;;;;;;;;;;28.43;54.83;100608.88;1772544;80;20304;-76
2021/08/29 11:02:52;;;;;;;;;;;;;;;28.44;54.13;100601.33;1773263;78;20547;-75
2021/08/29 11:05:42;;;;;;;;;;;;;;;28.50;54.17;100598.99;1779170;78;20611;-70
2021/08/29 11:08:27;;;;;;;;;;;;;;;28.55;53.92;100595.19;1793352;79;20184;-78
2021/08/29 11:10:58;;;;;;;;;;;;;;;28.60;53.77;100590.58;1781686;78;20598;-74
2021/08/29 11:13:39;;;;;;;;;;;;;;;28.60;53.64;100589.16;1770215;79;20188;-72
2021/08/29 11:16:16;;;;;;;;;;;;;;;28.65;53.93;100582.27;1769916;79;20234;-73
2021/08/29 11:19:05;;;;;;;;;;;;;;;28.69;53.47;100571.14;1776798;78;20194;-75
2021/08/29 11:21:41;;;;;;;;;;;;;;;28.75;53.40;100579.61;1777172;80;20591;-75
2021/08/29 11:24:50;;;;;;;;;;;;;;;28.79;52.86;100581.89;1807766;78;20654;-80
2021/08/29 11:27:45;;;;;;;;;;;;;;;28.80;52.72;100578.45;1788364;78;20267;-77
2021/08/29 11:30:40;;;;;;;;;;;;;;;28.82;52.58;100584.00;1760100;80;20265;-77
2021/08/29 11:33:24;;;;;;;;;;;;;;;28.83;51.68;100581.36;1816721;77;20230;-77
2021/08/29 11:36:02;;;;;;;;;;;;;;;28.80;51.76;100580.68;1812256;77;20255;-77
2021/08/29 11:38:43;;;;;;;;;;;;;;;28.80;51.67;100583.54;1803735;77;20190;-78
2021/08/29 11:41:17;;;;;;;;;;;;;;;28.80;51.08;100577.82;1785914;78;20591;-81
2021/08/29 11:43:58;;;;;;;;;;;;;;;28.83;51.62;100574.20;1786072;80;20293;-76
2021/08/29 11:46:32;;;;;;;;;;;;;;;28.86;51.36;100570.56;1782917;80;20288;-75
2021/08/29 11:49:12;;;;;;;;;;;;;;;28.90;51.48;100560.59;1787498;80;20238;-75
2021/08/29 11:51:50;;;;;;;;;;;;;;;28.93;51.78;100567.80;1785947;80;20258;-76
2021/08/29 11:54:26;;;;;;;;;;;;;;;28.94;50.80;100565.18;1783824;80;20552;-77
2021/08/29 11:57:04;;;;;;;;;;;;;;;28.97;50.72;100566.48;1786074;78;20190;-74
2021/08/29 11:59:39;;;;;;;;;;;;;;;29.01;50.76;100561.61;1785951;78;20570;-78
2021/08/29 12:02:16;;;;;;;;;;;;;;;29.05;50.43;100557.58;1782301;79;20331;-75
2021/08/29 12:04:51;;;;;;;;;;;;;;;29.10;50.09;100559.30;1783846;80;20190;-75
2021/08/29 12:07:28;;;;;;;;;;;;;;;29.10;50.24;100560.11;1739633;79;20183;-77
2021/08/29 12:10:18;;;;;;;;;;;;;;;29.08;50.05;100554.55;1766980;79;20249;-77
2021/08/29 12:13:04;;;;;;;;;;;;;;;29.06;50.19;100554.12;1738953;79;20185;-75
2021/08/29 12:15:38;;;;;;;;;;;;;;;29.06;50.46;100547.81;1776982;77;20580;-78
2021/08/29 12:18:18;;;;;;;;;;;;;;;29.07;50.40;100538.01;1759111;81;20255;-76
2021/08/29 12:20:53;;;;;;;;;;;;;;;29.08;50.34;100541.09;1775310;81;20255;-77
2021/08/29 12:23:29;;;;;;;;;;;;;;;29.08;49.67;100529.64;1731800;81;20197;-77
2021/08/29 12:26:03;;;;;;;;;;;;;;;29.08;49.61;100532.50;1757847;80;20316;-77
2021/08/29 12:28:53;;;;;;;;;;;;;;;29.05;49.96;100528.97;1788785;80;20247;-80
2021/08/29 12:31:43;;;;;;;;;;;;;;;29.03;50.22;100518.53;1793378;79;20621;-78
2021/08/29 12:34:16;;;;;;;;;;;;;;;29.02;50.33;100521.77;1821702;77;20277;-75
2021/08/29 12:36:51;;;;;;;;;;;;;;;29.02;50.42;100518.32;1782864;79;20183;-76
2021/08/29 12:39:23;;;;;;;;;;;;;;;29.02;50.61;100525.47;1806282;78;20191;-75
2021/08/29 12:41:55;;;;;;;;;;;;;;;29.03;50.73;100522.02;1809660;79;20278;-75
2021/08/29 12:44:37;;;;;;;;;;;;;;;29.01;51.04;100522.39;1815378;79;20559;-75
2021/08/29 12:47:10;;;;;;;;;;;;;;;29.01;51.06;100519.54;1819375;79;20596;-75
2021/08/29 12:49:52;;;;;;;;;;;;;;;29.02;51.05;100522.61;1821804;79;20604;-76
2021/08/29 12:52:50;;;;;;;;;;;;;;;29.02;50.83;100520.34;1790255;79;20274;-76
2021/08/29 12:55:23;;;;;;;;;;;;;;;29.02;50.62;100514.03;1815033;79;20193;-76
2021/08/29 12:58:04;;;;;;;;;;;;;;;29.03;50.55;100517.10;1816916;79;20603;-76
2021/08/29 13:00:46;;;;;;;;;;;;;;;29.04;50.73;100510.78;1804797;79;20254;-76
2021/08/29 13:03:17;;;;;;;;;;;;;;;29.04;50.50;100510.16;1816078;79;20298;-75
2021/08/29 13:05:55;;;;;;;;;;;;;;;29.03;50.34;100519.96;1821643;78;20182;-74
2021/08/29 13:08:39;;;;;;;;;;;;;;;29.03;50.50;100509.95;1789828;79;20258;-74
2021/08/29 13:11:14;;;;;;;;;;;;;;;29.01;50.32;100518.11;1816511;79;20615;-75
2021/08/29 13:13:48;;;;;;;;;;;;;;;29.01;50.17;100512.39;1808793;78;20246;-76
2021/08/29 13:16:20;;;;;;;;;;;;;;;29.02;50.20;100511.77;1806440;79;20183;-77
2021/08/29 13:19:01;;;;;;;;;;;;;;;29.02;50.33;100514.62;1800608;79;20188;-77
2021/08/29 13:21:41;;;;;;;;;;;;;;;29.02;50.47;100509.73;1801640;79;20624;-77
2021/08/29 13:24:30;;;;;;;;;;;;;;;29.01;50.64;100505.23;1789495;79;20548;-74
2021/08/29 13:27:06;;;;;;;;;;;;;;;29.00;50.76;100495.01;1798860;79;20219;-75